createdAt,value
2022-10-20T00:10:58.570Z,17.96
2022-10-20T00:22:32.571Z,16.72
2022-10-20T00:25:00.350Z,17.26
2022-10-20T00:27:28.110Z,17.59
2022-10-20T00:34:31.813Z,17.54
2022-10-20T00:36:59.437Z,17.47
2022-10-20T00:39:27.063Z,17.38
2022-10-20T00:46:40.708Z,17.63
2022-10-20T00:49:25.867Z,17.81
2022-10-20T00:51:55.019Z,18.05
2022-10-20T00:54:27.269Z,17.86
2022-10-20T00:57:00.282Z,17.84
2022-10-20T01:03:59.923Z,17.94
2022-10-20T01:41:03.422Z,17.63
2022-10-20T04:34:12.806Z,16.61
2022-10-20T04:45:34.003Z,16.68
2022-10-20T04:59:46.965Z,16.66
2022-10-20T05:02:27.480Z,16.71
2022-10-20T05:05:27.784Z,16.83
2022-10-20T05:08:48.032Z,16.59
2022-10-20T05:11:22.243Z,16.42
2022-10-20T05:14:06.189Z,16.45
2022-10-20T05:18:01.488Z,16.65
2022-10-20T05:20:41.209Z,16.80
2022-10-20T05:23:44.433Z,16.72
2022-10-20T05:26:19.066Z,16.92
2022-10-20T05:28:57.000Z,16.95
2022-10-20T05:32:17.466Z,17.05
2022-10-20T05:35:10.356Z,16.94
2022-10-20T05:37:41.242Z,16.68
2022-10-20T05:40:11.558Z,15.92
2022-10-20T05:43:01.610Z,15.70
2022-10-20T05:45:29.274Z,16.17
2022-10-20T05:48:30.545Z,16.55
2022-10-20T05:51:22.761Z,16.84
2022-10-20T05:53:51.612Z,16.93
2022-10-20T05:56:22.837Z,17.18
2022-10-20T05:58:53.068Z,17.37
2022-10-20T06:01:25.951Z,17.27
2022-10-20T06:04:00.351Z,17.32
2022-10-20T06:06:31.823Z,17.50
2022-10-20T06:09:40.450Z,17.17
2022-10-20T06:12:11.115Z,16.68
2022-10-20T06:14:47.756Z,16.75
2022-10-20T06:17:15.360Z,17.20
2022-10-20T06:20:47.460Z,17.30
2022-10-20T06:23:18.015Z,17.46
2022-10-20T06:25:51.146Z,17.58
2022-10-20T06:28:18.815Z,17.69
2022-10-20T06:30:47.872Z,17.69
2022-10-20T06:33:17.030Z,18.08
2022-10-20T06:35:44.729Z,18.27
2022-10-20T06:38:14.917Z,18.56
2022-10-20T06:40:52.871Z,18.53
2022-10-20T06:43:28.949Z,18.15
2022-10-20T06:46:08.320Z,18.72
2022-10-20T06:48:38.265Z,19.16
2022-10-20T06:51:12.487Z,19.22
2022-10-20T06:53:46.637Z,19.23
2022-10-20T06:56:20.301Z,19.63
2022-10-20T06:58:51.854Z,19.56
2022-10-20T07:01:26.751Z,19.73
2022-10-20T07:04:15.373Z,19.84
2022-10-20T07:06:47.156Z,19.97
2022-10-20T07:09:24.905Z,20.22
2022-10-20T07:12:04.013Z,20.16
2022-10-20T07:14:39.974Z,20.07
2022-10-20T07:18:22.661Z,19.38
2022-10-20T07:20:50.661Z,19.82
2022-10-20T07:23:28.363Z,19.95
2022-10-20T07:26:05.369Z,19.47
2022-10-20T07:32:35.236Z,20.99
2022-10-20T07:35:03.185Z,21.95
2022-10-20T07:37:31.022Z,22.48
2022-10-20T07:40:02.146Z,22.65
2022-10-20T07:42:32.199Z,22.46
2022-10-20T07:45:02.647Z,23.78
2022-10-20T07:47:38.101Z,25.18
2022-10-20T07:50:17.840Z,24.42
2022-10-20T07:52:52.476Z,23.32
2022-10-20T07:55:37.672Z,24.57
2022-10-20T07:58:06.255Z,25.00
2022-10-20T08:03:11.864Z,26.81
2022-10-20T08:05:47.010Z,27.40
2022-10-20T08:08:22.418Z,26.60
2022-10-20T08:11:45.323Z,26.49
2022-10-20T08:14:08.173Z,26.20
2022-10-20T08:16:55.211Z,26.48
2022-10-20T08:22:29.551Z,25.48
2022-10-20T08:25:16.989Z,26.27
2022-10-20T08:27:50.315Z,26.67
2022-10-20T08:30:24.702Z,25.99
2022-10-20T08:32:54.568Z,25.50
2022-10-20T08:35:33.985Z,26.66
2022-10-20T08:38:01.628Z,26.39
2022-10-20T08:40:31.193Z,25.92
2022-10-20T08:42:58.829Z,24.50
2022-10-20T08:45:29.345Z,24.81
2022-10-20T08:47:58.786Z,25.37
2022-10-20T08:50:28.726Z,25.92
2022-10-20T08:53:00.085Z,25.56
2022-10-20T08:55:32.597Z,25.16
2022-10-20T08:58:06.951Z,26.37
2022-10-20T09:00:37.750Z,26.12
2022-10-20T09:03:24.195Z,26.95
2022-10-20T09:05:56.787Z,26.44
2022-10-20T09:08:29.718Z,26.91
2022-10-20T09:10:57.301Z,27.20
2022-10-20T09:13:28.955Z,27.69
2022-10-20T09:16:03.784Z,26.52
2022-10-20T09:18:33.078Z,25.90
2022-10-20T09:21:13.607Z,25.57
2022-10-20T09:23:44.920Z,25.95
2022-10-20T09:26:30.912Z,25.89
2022-10-20T09:29:19.012Z,28.25
2022-10-20T09:31:55.424Z,28.03
2022-10-20T09:34:34.275Z,27.82
2022-10-20T09:37:13.532Z,26.45
2022-10-20T09:39:49.214Z,27.17
2022-10-20T09:42:24.747Z,25.84
2022-10-20T09:45:00.596Z,26.20
2022-10-20T09:47:29.022Z,25.11
2022-10-20T09:50:01.059Z,24.38
2022-10-20T09:52:34.875Z,25.22
2022-10-20T09:55:19.570Z,26.37
2022-10-20T09:57:48.379Z,26.41
2022-10-20T10:00:45.379Z,27.03
2022-10-20T10:03:23.697Z,26.57
2022-10-20T10:06:12.647Z,25.44
2022-10-20T10:08:46.732Z,27.13
2022-10-20T10:11:19.501Z,27.30
2022-10-20T10:13:50.006Z,27.45
2022-10-20T10:16:21.109Z,27.98
2022-10-20T10:19:03.156Z,26.85
2022-10-20T10:22:02.427Z,26.48
2022-10-20T10:24:32.463Z,27.76
2022-10-20T10:26:59.999Z,27.69
2022-10-20T10:29:33.884Z,27.73
2022-10-20T10:32:19.303Z,27.20
2022-10-20T10:34:58.953Z,26.80
2022-10-20T10:37:45.989Z,28.29
2022-10-20T10:40:18.680Z,28.11
2022-10-20T10:43:14.735Z,27.36
2022-10-20T10:45:52.488Z,25.90
2022-10-20T10:48:45.755Z,26.28
2022-10-20T10:51:48.401Z,26.42
2022-10-20T10:54:57.200Z,26.87
2022-10-20T10:58:09.358Z,25.66
2022-10-20T11:00:58.529Z,25.94
2022-10-20T11:03:53.773Z,26.48
2022-10-20T11:06:30.788Z,25.83
2022-10-20T11:09:03.827Z,25.90
2022-10-20T11:12:03.537Z,26.52
2022-10-20T11:14:33.708Z,27.20
2022-10-20T11:17:35.945Z,25.38
2022-10-20T11:20:12.302Z,26.52
2022-10-20T11:22:58.355Z,25.92
2022-10-20T11:25:34.142Z,25.97
2022-10-20T11:28:02.018Z,26.12
2022-10-20T11:30:33.461Z,26.60
2022-10-20T11:33:22.616Z,26.99
2022-10-20T11:36:05.366Z,26.49
2022-10-20T11:38:53.664Z,26.86
2022-10-20T11:41:45.651Z,26.30
2022-10-20T11:44:22.556Z,26.67
2022-10-20T11:47:00.260Z,27.32
2022-10-20T11:49:29.042Z,26.58
2022-10-20T11:52:28.781Z,26.80
2022-10-20T11:55:17.649Z,26.12
2022-10-20T11:57:51.695Z,26.61
2022-10-20T12:00:55.178Z,27.16
2022-10-20T12:03:52.103Z,27.31
2022-10-20T12:06:28.400Z,27.19
2022-10-20T12:09:24.173Z,26.79
2022-10-20T12:11:56.472Z,27.09
2022-10-20T12:14:30.436Z,27.28
2022-10-20T12:17:15.145Z,27.26
2022-10-20T12:19:42.632Z,27.13
2022-10-20T12:22:16.194Z,27.06
2022-10-20T12:24:52.490Z,26.47
2022-10-20T12:27:22.064Z,26.43
2022-10-20T12:29:51.369Z,26.73
2022-10-20T12:32:21.627Z,26.49
2022-10-20T12:34:53.736Z,26.90
2022-10-20T12:37:23.709Z,26.79
2022-10-20T12:39:54.154Z,26.38
2022-10-20T12:42:28.910Z,26.68
2022-10-20T12:45:02.849Z,26.73
2022-10-20T12:47:33.080Z,27.23
2022-10-20T12:50:08.611Z,26.29
2022-10-20T12:52:40.151Z,26.89
2022-10-20T12:55:31.820Z,26.82
2022-10-20T12:58:17.331Z,26.32
2022-10-20T13:00:47.475Z,26.85
2022-10-20T13:03:50.940Z,26.46
2022-10-20T13:06:24.308Z,27.15
2022-10-20T13:09:03.925Z,27.56
2022-10-20T13:11:44.870Z,27.83
2022-10-20T13:14:13.837Z,27.55
2022-10-20T13:17:27.488Z,26.70
2022-10-20T13:20:01.956Z,27.20
2022-10-20T13:22:35.824Z,26.42
2022-10-20T13:25:07.022Z,26.00
2022-10-20T13:27:36.341Z,26.91
2022-10-20T13:30:08.439Z,26.46
2022-10-20T13:32:53.796Z,27.34
2022-10-20T13:35:37.185Z,27.34
2022-10-20T13:38:10.157Z,27.40
2022-10-20T13:43:56.674Z,26.69
2022-10-20T13:46:48.649Z,27.01
2022-10-20T13:49:40.790Z,26.16
2022-10-20T13:52:15.122Z,26.26
2022-10-20T13:54:47.557Z,26.22
2022-10-20T13:57:27.821Z,26.67
2022-10-20T14:00:20.360Z,26.72
2022-10-20T14:02:59.653Z,26.13
2022-10-20T14:05:29.473Z,27.01
2022-10-20T14:08:03.232Z,26.70
2022-10-20T14:10:36.688Z,26.38
2022-10-20T14:13:09.323Z,26.51
2022-10-20T14:15:37.666Z,26.66
2022-10-20T14:18:08.563Z,26.81
2022-10-20T14:20:41.823Z,26.68
2022-10-20T14:23:10.909Z,26.81
2022-10-20T14:25:39.641Z,25.55
2022-10-20T14:28:09.698Z,26.40
2022-10-20T14:30:40.069Z,26.23
2022-10-20T14:33:18.556Z,26.04
2022-10-20T14:36:15.887Z,26.13
2022-10-20T14:38:48.285Z,26.39
2022-10-20T14:41:25.992Z,26.51
2022-10-20T14:44:03.354Z,26.62
2022-10-20T14:46:45.837Z,26.45
2022-10-20T14:49:23.592Z,26.67
2022-10-20T14:52:03.465Z,26.40
2022-10-20T14:57:08.385Z,26.81
2022-10-20T14:59:51.307Z,26.24
2022-10-20T15:02:22.647Z,26.61
2022-10-20T15:04:53.272Z,26.74
2022-10-20T15:07:26.477Z,26.57
2022-10-20T15:10:02.896Z,26.52
2022-10-20T15:12:42.926Z,26.41
2022-10-20T15:15:10.477Z,26.05
2022-10-20T15:17:39.530Z,25.82
2022-10-20T15:20:37.520Z,26.02
2022-10-20T15:23:19.218Z,25.83
2022-10-20T15:26:03.073Z,25.99
2022-10-20T15:28:43.040Z,25.97
2022-10-20T15:31:13.256Z,25.92
2022-10-20T15:33:41.569Z,25.90
2022-10-20T15:36:15.475Z,25.59
2022-10-20T15:38:43.393Z,25.47
2022-10-20T15:41:16.040Z,25.14
2022-10-20T15:43:43.548Z,25.53
2022-10-20T15:46:13.011Z,25.61
2022-10-20T15:48:41.089Z,25.64
2022-10-20T15:51:29.291Z,25.64
2022-10-20T15:53:56.852Z,25.60
2022-10-20T15:56:24.770Z,25.52
2022-10-20T15:58:52.411Z,25.38
2022-10-20T16:01:28.696Z,25.13
2022-10-20T16:03:56.424Z,25.07
2022-10-20T16:06:24.594Z,25.12
2022-10-20T16:08:53.467Z,25.09
2022-10-20T16:11:21.722Z,24.98
2022-10-20T16:13:49.319Z,24.80
2022-10-20T16:16:19.471Z,24.70
2022-10-20T16:18:47.063Z,24.09
2022-10-20T16:21:17.169Z,23.80
2022-10-20T16:23:45.079Z,23.94
2022-10-20T16:26:14.163Z,23.89
2022-10-20T16:28:41.980Z,23.69
2022-10-20T16:31:11.825Z,23.37
2022-10-20T16:33:39.365Z,23.22
2022-10-20T16:36:09.775Z,23.10
2022-10-20T16:38:40.176Z,23.11
2022-10-20T16:41:14.079Z,23.11
2022-10-20T16:43:44.273Z,22.95
2022-10-20T16:46:13.774Z,22.93
2022-10-20T16:48:42.873Z,22.85
2022-10-20T16:51:15.367Z,22.80
2022-10-20T16:53:42.935Z,22.66
2022-10-20T16:56:10.929Z,22.45
2022-10-20T16:58:38.428Z,22.47
2022-10-20T17:01:10.938Z,22.55
2022-10-20T17:06:13.461Z,22.39
2022-10-20T17:08:41.158Z,22.30
2022-10-20T17:11:28.291Z,22.32
2022-10-20T17:13:56.717Z,22.46
2022-10-20T17:16:35.419Z,22.31
2022-10-20T17:19:03.208Z,22.29
2022-10-20T17:21:32.091Z,22.26
2022-10-20T17:24:00.316Z,22.21
2022-10-20T17:26:30.911Z,22.25
2022-10-20T17:29:00.644Z,22.24
2022-10-20T17:31:29.467Z,21.92
2022-10-20T17:33:59.923Z,21.87
2022-10-20T17:36:28.916Z,21.94
2022-10-20T17:39:02.142Z,22.02
2022-10-20T17:41:30.377Z,22.13
2022-10-20T17:44:03.100Z,21.69
2022-10-20T17:46:31.224Z,21.74
2022-10-20T17:49:01.817Z,21.86
2022-10-20T17:51:33.432Z,22.07
2022-10-20T17:54:04.551Z,22.19
2022-10-20T17:56:37.435Z,22.19
2022-10-20T17:59:09.183Z,22.25
2022-10-20T18:01:41.017Z,22.14
2022-10-20T18:04:17.530Z,22.24
2022-10-20T18:06:49.774Z,22.12
2022-10-20T18:09:19.769Z,22.02
2022-10-20T18:11:49.952Z,21.98
2022-10-20T18:14:18.240Z,21.93
2022-10-20T18:16:48.756Z,22.16
2022-10-20T18:19:18.637Z,22.09
2022-10-20T18:21:46.620Z,22.18
2022-10-20T18:24:15.584Z,22.11
2022-10-20T18:26:43.954Z,21.97
2022-10-20T18:29:12.566Z,21.68
2022-10-20T18:31:45.554Z,21.68
2022-10-20T18:34:20.475Z,21.83
2022-10-20T18:36:49.360Z,21.81
2022-10-20T18:39:17.119Z,22.06
2022-10-20T18:41:45.576Z,22.21
2022-10-20T18:44:15.949Z,22.11
2022-10-20T18:46:44.337Z,22.13
2022-10-20T18:49:14.471Z,22.30
2022-10-20T18:51:42.319Z,22.20
2022-10-20T18:54:09.835Z,22.07
2022-10-20T18:56:37.441Z,21.87
2022-10-20T18:59:08.572Z,21.86
2022-10-20T19:01:38.679Z,21.47
2022-10-20T19:04:07.166Z,21.63
2022-10-20T19:06:46.481Z,21.44
2022-10-20T19:09:19.955Z,21.39
2022-10-20T19:14:21.414Z,21.60
2022-10-20T19:16:49.858Z,21.47
2022-10-20T19:19:17.558Z,21.47
2022-10-20T19:21:47.484Z,21.45
2022-10-20T19:24:16.777Z,21.33
2022-10-20T19:26:57.221Z,21.36
2022-10-20T19:29:30.470Z,21.23
2022-10-20T19:32:00.983Z,20.96
2022-10-20T19:34:32.909Z,21.32
2022-10-20T19:37:01.517Z,21.20
2022-10-20T19:39:41.193Z,21.37
2022-10-20T19:42:11.042Z,21.42
2022-10-20T19:44:39.566Z,21.44
2022-10-20T19:47:08.600Z,21.66
2022-10-20T19:49:36.373Z,21.49
2022-10-20T19:52:04.954Z,21.45
2022-10-20T19:54:32.946Z,21.28
2022-10-20T19:57:00.971Z,21.56
2022-10-20T19:59:47.748Z,21.47
2022-10-20T20:02:15.758Z,21.46
2022-10-20T20:04:43.846Z,21.37
2022-10-20T20:07:11.458Z,20.93
2022-10-20T20:09:39.602Z,20.90
2022-10-20T20:12:07.756Z,21.01
2022-10-20T20:14:35.626Z,21.05
2022-10-20T20:17:04.323Z,21.17
2022-10-20T20:19:32.672Z,21.04
2022-10-20T20:22:00.350Z,21.07
2022-10-20T20:24:27.820Z,20.97
2022-10-20T20:26:55.328Z,21.07
2022-10-20T20:29:22.860Z,21.10
2022-10-20T20:31:50.428Z,20.98
2022-10-20T20:34:17.954Z,21.07
2022-10-20T20:36:45.572Z,21.06
2022-10-20T20:39:13.087Z,20.96
2022-10-20T20:41:41.748Z,20.94
2022-10-20T20:44:09.271Z,21.07
2022-10-20T20:46:37.222Z,21.11
2022-10-20T20:49:05.210Z,21.16
2022-10-20T20:51:34.004Z,21.09
2022-10-20T20:54:03.295Z,21.09
2022-10-20T20:56:31.068Z,21.19
2022-10-20T20:58:58.515Z,20.81
2022-10-20T21:01:28.390Z,21.16
2022-10-20T21:03:58.194Z,21.03
2022-10-20T21:06:33.699Z,21.05
2022-10-20T21:09:10.838Z,20.94
2022-10-20T21:11:38.592Z,20.86
2022-10-20T21:14:06.024Z,20.91
2022-10-20T21:16:36.392Z,20.79
2022-10-20T21:19:07.988Z,20.72
2022-10-20T21:21:37.973Z,20.72
2022-10-20T21:24:06.577Z,20.21
2022-10-20T21:26:34.104Z,20.12
2022-10-20T21:29:01.586Z,20.17
2022-10-20T21:31:29.869Z,20.30
2022-10-20T21:34:00.337Z,20.39
2022-10-20T21:36:29.522Z,20.19
2022-10-20T21:38:59.421Z,20.07
2022-10-20T21:41:29.321Z,20.20
2022-10-20T21:43:58.703Z,20.20
2022-10-20T21:46:34.576Z,20.15
2022-10-20T21:49:13.547Z,20.05
2022-10-20T21:51:44.105Z,20.03
2022-10-20T21:54:14.611Z,19.99
2022-10-20T21:56:44.505Z,20.04
2022-10-20T21:59:19.067Z,19.97
2022-10-20T22:01:48.233Z,19.95
2022-10-20T22:04:17.170Z,19.84
2022-10-20T22:06:44.784Z,19.84
2022-10-20T22:09:13.215Z,19.90
2022-10-20T22:11:44.619Z,19.86
2022-10-20T22:14:12.669Z,19.75
2022-10-20T22:16:42.051Z,19.89
2022-10-20T22:19:14.271Z,19.73
2022-10-20T22:21:44.374Z,19.77
2022-10-20T22:24:12.570Z,19.93
2022-10-20T22:26:58.936Z,19.82
2022-10-20T22:29:26.621Z,19.98
2022-10-20T22:31:54.385Z,19.93
2022-10-20T22:34:21.876Z,19.79
2022-10-20T22:36:49.423Z,19.81
2022-10-20T22:39:16.858Z,19.89
2022-10-20T22:41:44.312Z,19.91
2022-10-20T22:44:11.876Z,19.73
2022-10-20T22:46:39.526Z,19.48
2022-10-20T22:49:07.066Z,19.55
2022-10-20T22:51:34.548Z,19.77
2022-10-20T22:54:02.025Z,19.66
2022-10-20T22:56:29.567Z,19.99
2022-10-20T22:58:57.055Z,19.89
2022-10-20T23:01:25.011Z,19.84
2022-10-20T23:03:52.833Z,19.77
2022-10-20T23:06:26.789Z,19.96
2022-10-20T23:08:56.090Z,20.02
2022-10-20T23:11:24.315Z,19.97
2022-10-20T23:14:04.058Z,19.90
2022-10-20T23:16:31.653Z,19.96
2022-10-20T23:18:59.254Z,20.00
2022-10-20T23:21:26.778Z,20.01
2022-10-20T23:23:55.017Z,20.09
2022-10-20T23:26:22.653Z,20.08
2022-10-20T23:28:50.243Z,20.52
2022-10-20T23:31:19.991Z,20.57
2022-10-20T23:33:49.769Z,20.46
2022-10-20T23:36:17.585Z,20.42
2022-10-20T23:38:46.406Z,20.52
2022-10-20T23:41:14.719Z,20.40
2022-10-20T23:43:42.197Z,20.54
2022-10-20T23:46:10.096Z,20.37
2022-10-20T23:48:38.181Z,20.48
2022-10-20T23:51:07.118Z,20.33
2022-10-20T23:53:35.020Z,20.31
2022-10-20T23:56:03.024Z,20.04
2022-10-20T23:58:30.513Z,19.89
